TOWK1: Whitewater River, Towanda, KS

Data processed at Thu Jun 20 2019 23:50


All information presented herein is the property of the government of the United States of America and may be revised or deleted at any time without prior notice.
Dissemination of this information without the expressed written consent of the Public Affairs Office, Tulsa District U.S. Army Corps of Engineers is strictly prohibited.
These data are gathered electronically and, as presented, have not undergone any form of quality control. These data are not guaranteed to be valid or correct.
Go to home page.
Go to station list.
Go to home page.

Downstream station:


Previous Day
Next Day
Current Day
    
SHEF ID:       TOWK1     WHITEWATER R AT TOWANDA, KS
STATION TYPE:  
Regulating: Stage =    22.00, Flow =     7669

               PRECIP     STAGE  RIV-FLOW  BAT-LOAD
                   in        ft       cfs      volt
              Ccp-Rev   Ccp-Rev   Ccp-Rev   Ccp-Rev
(US/Central)
06/20 00:00      0.00      5.23       712     12.09
06/20 01:00      0.00      5.06       669     12.09
06/20 02:00      0.00      4.90       628     12.09
06/20 03:00      0.00      4.78       599     12.09
06/20 04:00      0.00      4.63       562     12.09
06/20 05:00      0.00      4.51       534     12.09
06/20 06:00      0.00      4.39       505     12.09
06/20 07:00      0.00      4.30       484     12.09
06/20 08:00      0.00      4.19       459     12.09
06/20 09:00      0.00      4.09       436     12.09
06/20 10:00      0.00      4.01       418     12.09
06/20 11:00      0.00      3.94       402     12.17
06/20 12:00      0.00      3.86       384     12.17
06/20 13:00      0.00      3.79       368     12.25
06/20 14:00      0.00      3.73       355     12.33
06/20 15:00      0.00      3.66       339     12.33
06/20 16:00      0.00      3.61       328     12.25
06/20 17:00      0.00      3.55       315     12.25
06/20 18:00      0.00      3.52       309     12.25
06/20 19:00      0.00      3.46       296     12.25
06/20 20:00      0.00      3.42       288     12.25
06/20 21:00      0.00      3.38       280     12.25
06/20 22:00      0.00      3.34       271     12.17
06/20 23:00      0.00      3.31       265     12.17